sensor_id;sensor_type;location;lat;lon;timestamp;pressure;altitude;pressure_sealevel;temperature;humidity
12073;BME280;6098;49.004;8.372;2022-11-09T00:13:22;99980.47;;;13.33;91.02
12073;BME280;6098;49.004;8.372;2022-11-09T00:28:15;100002.56;;;13.27;93.37
12073;BME280;6098;49.004;8.372;2022-11-09T00:43:06;100048.69;;;13.03;95.80
12073;BME280;6098;49.004;8.372;2022-11-09T00:57:58;100036.28;;;13.03;99.98
12073;BME280;6098;49.004;8.372;2022-11-09T01:12:49;100052.22;;;12.94;100.00
12073;BME280;6098;49.004;8.372;2022-11-09T01:27:44;100037.19;;;12.86;100.00
12073;BME280;6098;49.004;8.372;2022-11-09T01:42:39;100053.27;;;12.83;100.00
12073;BME280;6098;49.004;8.372;2022-11-09T01:57:44;100051.20;;;12.72;100.00
12073;BME280;6098;49.004;8.372;2022-11-09T02:12:40;100046.00;;;12.62;100.00
12073;BME280;6098;49.004;8.372;2022-11-09T02:27:35;100052.36;;;12.59;100.00
12073;BME280;6098;49.004;8.372;2022-11-09T02:42:29;100042.27;;;12.57;100.00
12073;BME280;6098;49.004;8.372;2022-11-09T02:57:22;100010.80;;;12.57;100.00
12073;BME280;6098;49.004;8.372;2022-11-09T03:12:13;100004.01;;;12.60;100.00
12073;BME280;6098;49.004;8.372;2022-11-09T03:27:24;99997.59;;;12.64;100.00
12073;BME280;6098;49.004;8.372;2022-11-09T03:42:24;99984.81;;;12.71;100.00
12073;BME280;6098;49.004;8.372;2022-11-09T03:57:13;100029.73;;;12.76;100.00
12073;BME280;6098;49.004;8.372;2022-11-09T04:12:21;100026.95;;;12.78;100.00
12073;BME280;6098;49.004;8.372;2022-11-09T04:27:14;100027.16;;;12.83;100.00
12073;BME280;6098;49.004;8.372;2022-11-09T04:42:07;100003.20;;;12.91;100.00
12073;BME280;6098;49.004;8.372;2022-11-09T04:56:58;100000.79;;;13.03;100.00
12073;BME280;6098;49.004;8.372;2022-11-09T05:11:50;99993.29;;;13.11;100.00
12073;BME280;6098;49.004;8.372;2022-11-09T05:26:43;100025.82;;;13.16;100.00
12073;BME280;6098;49.004;8.372;2022-11-09T05:41:35;100044.70;;;13.19;100.00
12073;BME280;6098;49.004;8.372;2022-11-09T05:56:26;100075.86;;;13.17;100.00
12073;BME280;6098;49.004;8.372;2022-11-09T06:11:19;100083.45;;;13.17;100.00
12073;BME280;6098;49.004;8.372;2022-11-09T06:26:11;100074.91;;;13.10;100.00
12073;BME280;6098;49.004;8.372;2022-11-09T06:41:02;100087.98;;;12.98;100.00
12073;BME280;6098;49.004;8.372;2022-11-09T06:55:58;100093.86;;;12.87;100.00
12073;BME280;6098;49.004;8.372;2022-11-09T07:10:51;100105.85;;;12.78;100.00
12073;BME280;6098;49.004;8.372;2022-11-09T07:25:48;100104.61;;;12.77;100.00
12073;BME280;6098;49.004;8.372;2022-11-09T07:40:41;100069.62;;;12.84;100.00
12073;BME280;6098;49.004;8.372;2022-11-09T07:55:34;100081.28;;;12.98;100.00
12073;BME280;6098;49.004;8.372;2022-11-09T08:10:27;100114.08;;;13.16;100.00
12073;BME280;6098;49.004;8.372;2022-11-09T08:25:21;100118.37;;;13.35;100.00
12073;BME280;6098;49.004;8.372;2022-11-09T08:40:14;100115.91;;;13.55;100.00
12073;BME280;6098;49.004;8.372;2022-11-09T08:55:05;100117.55;;;13.73;100.00
12073;BME280;6098;49.004;8.372;2022-11-09T09:09:59;100138.16;;;13.86;100.00
12073;BME280;6098;49.004;8.372;2022-11-09T09:24:53;100136.23;;;14.04;100.00
12073;BME280;6098;49.004;8.372;2022-11-09T09:39:46;100150.03;;;14.26;100.00
12073;BME280;6098;49.004;8.372;2022-11-09T09:54:39;100157.49;;;14.36;100.00
12073;BME280;6098;49.004;8.372;2022-11-09T10:39:25;100147.33;;;15.02;100.00
12073;BME280;6098;49.004;8.372;2022-11-09T10:54:21;100149.63;;;15.22;100.00
12073;BME280;6098;49.004;8.372;2022-11-09T11:09:17;100145.73;;;15.50;100.00
12073;BME280;6098;49.004;8.372;2022-11-09T11:24:17;100132.07;;;15.68;97.89
12073;BME280;6098;49.004;8.372;2022-11-09T11:39:34;100134.69;;;15.76;96.63
12073;BME280;6098;49.004;8.372;2022-11-09T11:54:33;100141.52;;;15.94;95.76
12073;BME280;6098;49.004;8.372;2022-11-09T12:24:35;100127.34;;;15.86;94.57
12073;BME280;6098;49.004;8.372;2022-11-09T12:39:44;100131.16;;;15.82;93.53
12073;BME280;6098;49.004;8.372;2022-11-09T12:54:39;100133.75;;;15.76;93.66
12073;BME280;6098;49.004;8.372;2022-11-09T13:09:30;100140.83;;;15.77;94.43
12073;BME280;6098;49.004;8.372;2022-11-09T13:39:29;100166.52;;;15.66;94.82
12073;BME280;6098;49.004;8.372;2022-11-09T13:54:35;100165.19;;;15.59;96.53
12073;BME280;6098;49.004;8.372;2022-11-09T14:09:35;100186.77;;;15.48;97.52
12073;BME280;6098;49.004;8.372;2022-11-09T14:24:39;100197.30;;;15.36;99.04
12073;BME280;6098;49.004;8.372;2022-11-09T14:39:32;100208.38;;;15.22;100.00
12073;BME280;6098;49.004;8.372;2022-11-09T14:54:24;100221.72;;;15.15;100.00
12073;BME280;6098;49.004;8.372;2022-11-09T15:09:17;100222.40;;;15.04;100.00
12073;BME280;6098;49.004;8.372;2022-11-09T15:39:11;100193.50;;;14.81;100.00
12073;BME280;6098;49.004;8.372;2022-11-09T15:54:01;100205.44;;;14.67;100.00
12073;BME280;6098;49.004;8.372;2022-11-09T16:08:53;100208.73;;;14.57;100.00
12073;BME280;6098;49.004;8.372;2022-11-09T16:23:58;100237.53;;;14.51;100.00
12073;BME280;6098;49.004;8.372;2022-11-09T16:38:51;100266.19;;;14.48;100.00
12073;BME280;6098;49.004;8.372;2022-11-09T16:53:46;100281.16;;;14.42;100.00
12073;BME280;6098;49.004;8.372;2022-11-09T17:08:38;100304.47;;;14.39;100.00
12073;BME280;6098;49.004;8.372;2022-11-09T17:23:30;100329.95;;;14.36;100.00
12073;BME280;6098;49.004;8.372;2022-11-09T17:38:22;100338.86;;;14.35;100.00
12073;BME280;6098;49.004;8.372;2022-11-09T17:53:14;100357.52;;;14.35;100.00
12073;BME280;6098;49.004;8.372;2022-11-09T18:08:05;100378.83;;;14.36;100.00
12073;BME280;6098;49.004;8.372;2022-11-09T18:22:56;100386.42;;;14.35;100.00
12073;BME280;6098;49.004;8.372;2022-11-09T18:37:51;100422.63;;;14.23;100.00
12073;BME280;6098;49.004;8.372;2022-11-09T18:52:49;100451.19;;;14.12;100.00
12073;BME280;6098;49.004;8.372;2022-11-09T19:07:45;100470.03;;;14.00;100.00
12073;BME280;6098;49.004;8.372;2022-11-09T19:22:37;100489.27;;;13.89;100.00
12073;BME280;6098;49.004;8.372;2022-11-09T19:37:28;100495.23;;;13.85;100.00
12073;BME280;6098;49.004;8.372;2022-11-09T19:52:20;100518.31;;;13.85;100.00
12073;BME280;6098;49.004;8.372;2022-11-09T20:07:12;100537.05;;;13.84;100.00
12073;BME280;6098;49.004;8.372;2022-11-09T20:22:04;100560.70;;;13.81;100.00
12073;BME280;6098;49.004;8.372;2022-11-09T20:37:10;100588.07;;;13.76;100.00
12073;BME280;6098;49.004;8.372;2022-11-09T20:52:15;100600.22;;;13.73;100.00
12073;BME280;6098;49.004;8.372;2022-11-09T21:07:06;100623.69;;;13.65;100.00
12073;BME280;6098;49.004;8.372;2022-11-09T21:21:59;100633.53;;;13.54;100.00
12073;BME280;6098;49.004;8.372;2022-11-09T21:36:50;100651.31;;;13.43;100.00
12073;BME280;6098;49.004;8.372;2022-11-09T21:51:51;100672.13;;;13.35;100.00
12073;BME280;6098;49.004;8.372;2022-11-09T22:06:54;100697.61;;;13.31;100.00
12073;BME280;6098;49.004;8.372;2022-11-09T22:21:45;100717.24;;;13.28;100.00
12073;BME280;6098;49.004;8.372;2022-11-09T22:36:37;100732.66;;;13.21;100.00
12073;BME280;6098;49.004;8.372;2022-11-09T22:51:29;100766.17;;;13.16;100.00
12073;BME280;6098;49.004;8.372;2022-11-09T23:06:21;100788.96;;;13.12;100.00
12073;BME280;6098;49.004;8.372;2022-11-09T23:21:12;100803.16;;;13.01;100.00
12073;BME280;6098;49.004;8.372;2022-11-09T23:36:05;100818.91;;;12.95;100.00
12073;BME280;6098;49.004;8.372;2022-11-09T23:50:58;100823.81;;;12.94;100.00
